createdAt,value
2023-05-14T00:01:08.537Z,10.86
2023-05-14T00:03:56.819Z,10.81
2023-05-14T00:06:47.234Z,10.76
2023-05-14T00:09:36.205Z,10.71
2023-05-14T00:12:24.967Z,10.66
2023-05-14T00:15:13.307Z,10.63
2023-05-14T00:18:01.098Z,10.58
2023-05-14T00:20:49.456Z,10.54
2023-05-14T00:23:37.630Z,10.50
2023-05-14T00:26:25.777Z,10.46
2023-05-14T00:29:13.874Z,10.43
2023-05-14T00:32:01.757Z,10.38
2023-05-14T00:34:50.875Z,10.33
2023-05-14T00:37:40.475Z,10.31
2023-05-14T00:40:29.934Z,10.49
2023-05-14T00:43:20.784Z,11.82
2023-05-14T00:46:09.175Z,13.16
2023-05-14T00:49:00.001Z,13.97
2023-05-14T00:51:48.477Z,14.21
2023-05-14T00:54:37.095Z,13.39
2023-05-14T00:57:25.144Z,12.67
2023-05-14T01:00:15.187Z,12.17
2023-05-14T01:03:05.396Z,11.81
2023-05-14T01:06:26.669Z,11.52
2023-05-14T01:09:35.302Z,11.24
2023-05-14T01:12:38.631Z,11.03
2023-05-14T01:15:34.804Z,10.85
2023-05-14T01:18:24.526Z,10.70
2023-05-14T01:21:43.109Z,10.56
2023-05-14T01:24:31.185Z,10.42
2023-05-14T01:28:13.663Z,10.56
2023-05-14T01:31:14.562Z,12.25
2023-05-14T01:34:05.752Z,13.29
2023-05-14T01:36:58.972Z,14.01
2023-05-14T01:39:47.801Z,14.30
2023-05-14T01:42:36.973Z,13.43
2023-05-14T01:45:25.218Z,12.65
2023-05-14T01:48:13.314Z,12.12
2023-05-14T01:51:03.217Z,11.73
2023-05-14T01:53:51.446Z,11.44
2023-05-14T01:56:39.429Z,11.19
2023-05-14T01:59:29.952Z,10.98
2023-05-14T02:02:18.291Z,10.80
2023-05-14T02:05:09.600Z,10.64
2023-05-14T02:07:58.312Z,10.51
2023-05-14T02:10:46.866Z,10.68
2023-05-14T02:13:35.004Z,12.03
2023-05-14T02:16:23.054Z,13.14
2023-05-14T02:19:14.735Z,13.91
2023-05-14T02:22:04.002Z,14.17
2023-05-14T02:24:52.476Z,13.31
2023-05-14T02:27:40.844Z,12.53
2023-05-14T02:30:30.203Z,12.00
2023-05-14T02:33:19.065Z,11.61
2023-05-14T02:36:08.792Z,11.28
2023-05-14T02:39:01.241Z,11.02
2023-05-14T02:41:49.001Z,11.06
2023-05-14T02:44:38.297Z,12.29
2023-05-14T02:47:26.222Z,13.38
2023-05-14T02:50:14.602Z,14.08
2023-05-14T02:53:02.602Z,14.26
2023-05-14T02:55:50.834Z,13.37
2023-05-14T02:58:39.465Z,12.58
2023-05-14T03:01:27.513Z,12.01
2023-05-14T03:04:16.369Z,11.62
2023-05-14T03:07:04.678Z,11.31
2023-05-14T03:09:52.469Z,11.07
2023-05-14T03:12:41.888Z,11.16
2023-05-14T03:15:29.860Z,12.36
2023-05-14T03:18:17.952Z,13.40
2023-05-14T03:21:09.277Z,14.11
2023-05-14T03:23:57.498Z,14.67
2023-05-14T03:26:45.584Z,14.72
2023-05-14T03:29:33.826Z,13.81
2023-05-14T03:32:22.112Z,13.08
2023-05-14T03:35:11.337Z,12.59
2023-05-14T03:38:00.033Z,12.25
2023-05-14T03:40:51.426Z,11.98
2023-05-14T03:43:40.159Z,11.77
2023-05-14T03:46:29.455Z,11.91
2023-05-14T03:49:18.064Z,13.23
2023-05-14T03:52:06.701Z,14.37
2023-05-14T03:54:55.996Z,15.19
2023-05-14T03:57:46.235Z,15.31
2023-05-14T04:00:34.766Z,14.44
2023-05-14T04:03:22.955Z,13.77
2023-05-14T04:06:11.480Z,13.36
2023-05-14T04:08:59.955Z,13.07
2023-05-14T04:11:48.556Z,12.86
2023-05-14T04:14:38.781Z,12.70
2023-05-14T04:17:27.761Z,12.59
2023-05-14T04:20:15.942Z,12.52
2023-05-14T04:23:05.887Z,12.49
2023-05-14T04:25:53.825Z,12.49
2023-05-14T04:28:41.900Z,12.79
2023-05-14T04:31:31.831Z,14.21
2023-05-14T04:34:20.605Z,15.55
2023-05-14T04:37:09.114Z,16.20
2023-05-14T04:39:57.331Z,15.63
2023-05-14T04:42:45.592Z,15.12
2023-05-14T04:45:34.375Z,14.87
2023-05-14T04:48:25.365Z,14.77
2023-05-14T04:51:14.028Z,14.76
2023-05-14T04:54:02.581Z,14.81
2023-05-14T04:56:55.200Z,14.91
2023-05-14T04:59:44.250Z,15.01
2023-05-14T05:02:34.887Z,15.12
2023-05-14T05:05:31.156Z,15.25
2023-05-14T05:08:24.057Z,15.45
2023-05-14T05:11:16.452Z,15.73
2023-05-14T05:14:04.916Z,16.47
2023-05-14T05:16:52.753Z,18.13
2023-05-14T05:19:44.128Z,20.12
2023-05-14T05:22:33.306Z,22.07
2023-05-14T05:25:21.386Z,23.87
2023-05-14T05:28:09.658Z,25.62
2023-05-14T05:30:57.483Z,27.21
2023-05-14T05:33:45.798Z,28.61
2023-05-14T05:36:34.063Z,29.92
2023-05-14T05:39:22.081Z,30.96
2023-05-14T05:42:22.709Z,32.06
2023-05-14T05:45:11.479Z,32.95
2023-05-14T05:48:02.436Z,33.74
2023-05-14T05:50:51.576Z,34.45
2023-05-14T05:53:39.700Z,35.17
2023-05-14T05:56:28.494Z,35.67
2023-05-14T05:59:16.993Z,36.15
2023-05-14T06:02:06.984Z,36.48
2023-05-14T06:04:54.947Z,36.74
2023-05-14T06:07:43.212Z,37.14
2023-05-14T06:10:32.019Z,37.60
2023-05-14T06:13:20.700Z,37.96
2023-05-14T06:16:08.924Z,38.12
2023-05-14T06:18:56.947Z,38.27
2023-05-14T06:21:45.124Z,38.39
2023-05-14T06:24:33.132Z,38.54
2023-05-14T06:27:23.605Z,38.75
2023-05-14T06:30:12.793Z,39.10
2023-05-14T06:33:00.826Z,39.46
2023-05-14T06:35:49.353Z,39.80
2023-05-14T06:38:37.734Z,39.95
2023-05-14T06:41:26.319Z,40.10
2023-05-14T06:44:17.216Z,40.13
2023-05-14T06:47:08.858Z,39.91
2023-05-14T06:49:58.903Z,39.95
2023-05-14T06:52:47.698Z,40.14
2023-05-14T06:55:36.180Z,40.19
2023-05-14T06:58:24.466Z,40.34
2023-05-14T07:01:12.813Z,40.63
2023-05-14T07:04:03.032Z,40.78
2023-05-14T07:06:51.613Z,40.64
2023-05-14T07:09:42.231Z,40.61
2023-05-14T07:12:31.317Z,40.50
2023-05-14T07:15:20.202Z,40.44
2023-05-14T07:18:08.035Z,40.60
2023-05-14T07:20:57.145Z,40.84
2023-05-14T07:23:45.315Z,40.88
2023-05-14T07:26:33.764Z,40.77
2023-05-14T07:29:21.873Z,40.90
2023-05-14T07:32:09.967Z,40.81
2023-05-14T07:34:57.926Z,40.74
2023-05-14T07:37:46.816Z,40.81
2023-05-14T07:40:37.840Z,40.77
2023-05-14T07:43:27.150Z,40.62
2023-05-14T07:46:18.204Z,40.59
2023-05-14T07:49:05.960Z,40.61
2023-05-14T07:51:54.286Z,40.70
2023-05-14T07:54:44.664Z,40.70
2023-05-14T07:57:34.288Z,40.62
2023-05-14T08:00:22.726Z,40.60
2023-05-14T08:03:11.956Z,40.56
2023-05-14T08:06:00.177Z,40.61
2023-05-14T08:08:50.510Z,40.69
2023-05-14T08:11:39.352Z,40.63
2023-05-14T08:14:27.919Z,40.56
2023-05-14T08:17:16.973Z,40.61
2023-05-14T08:20:07.025Z,40.69
2023-05-14T08:22:58.752Z,40.66
2023-05-14T08:25:48.453Z,40.52
2023-05-14T08:28:36.622Z,40.40
2023-05-14T08:31:27.307Z,40.32
2023-05-14T08:34:16.628Z,40.12
2023-05-14T08:37:05.894Z,39.94
2023-05-14T08:39:54.711Z,39.74
2023-05-14T08:42:45.246Z,39.56
2023-05-14T08:45:38.967Z,39.59
2023-05-14T08:48:34.020Z,39.58
2023-05-14T08:51:22.500Z,39.49
2023-05-14T08:54:15.429Z,39.39
2023-05-14T08:57:05.099Z,39.17
2023-05-14T08:59:56.515Z,39.01
2023-05-14T09:02:46.723Z,38.99
2023-05-14T09:05:35.063Z,39.03
2023-05-14T09:08:23.862Z,39.07
2023-05-14T09:11:13.673Z,39.16
2023-05-14T09:14:01.801Z,39.16
2023-05-14T09:16:51.534Z,39.15
2023-05-14T09:19:41.572Z,39.18
2023-05-14T09:22:33.940Z,39.03
2023-05-14T09:25:28.422Z,38.79
2023-05-14T09:28:18.883Z,38.31
2023-05-14T09:31:07.344Z,37.58
2023-05-14T09:33:55.349Z,37.12
2023-05-14T09:36:43.672Z,36.41
2023-05-14T09:39:33.917Z,36.26
2023-05-14T09:42:21.701Z,36.42
2023-05-14T09:45:11.452Z,36.66
2023-05-14T09:48:01.490Z,37.04
2023-05-14T09:50:50.738Z,37.33
2023-05-14T09:53:41.599Z,37.48
2023-05-14T09:56:30.832Z,37.39
2023-05-14T09:59:19.214Z,37.27
2023-05-14T10:02:37.875Z,37.39
2023-05-14T10:05:37.489Z,37.59
2023-05-14T10:08:36.678Z,37.76
2023-05-14T10:11:31.177Z,37.87
2023-05-14T10:14:27.136Z,37.93
2023-05-14T10:17:18.626Z,37.65
2023-05-14T10:20:12.196Z,37.44
2023-05-14T10:23:03.867Z,37.14
2023-05-14T10:25:55.664Z,36.71
2023-05-14T10:28:50.022Z,36.52
2023-05-14T10:31:48.636Z,36.33
2023-05-14T10:34:38.978Z,36.10
2023-05-14T10:37:28.461Z,36.22
2023-05-14T10:40:18.695Z,36.44
2023-05-14T10:43:09.037Z,36.41
2023-05-14T10:45:58.967Z,36.17
2023-05-14T10:48:47.428Z,36.24
2023-05-14T10:51:36.955Z,36.42
2023-05-14T10:54:29.373Z,36.55
2023-05-14T10:57:23.216Z,36.81
2023-05-14T11:00:14.216Z,37.08
2023-05-14T11:03:06.090Z,37.23
2023-05-14T11:05:55.800Z,37.18
2023-05-14T11:08:46.612Z,36.91
2023-05-14T11:11:36.952Z,36.61
2023-05-14T11:14:25.201Z,36.43
2023-05-14T11:17:13.630Z,36.13
2023-05-14T11:20:02.106Z,35.75
2023-05-14T11:22:51.940Z,35.48
2023-05-14T11:25:42.079Z,35.20
2023-05-14T11:28:31.372Z,34.62
2023-05-14T11:31:23.465Z,33.73
2023-05-14T11:34:13.676Z,32.91
2023-05-14T11:37:07.621Z,32.32
2023-05-14T11:40:00.803Z,31.66
2023-05-14T11:42:53.871Z,30.92
2023-05-14T11:45:43.031Z,30.24
2023-05-14T11:48:34.632Z,29.62
2023-05-14T11:51:23.535Z,28.96
2023-05-14T11:54:14.464Z,28.36
2023-05-14T11:57:09.012Z,27.91
2023-05-14T11:59:58.064Z,27.60
2023-05-14T12:02:50.195Z,27.41
2023-05-14T12:05:40.497Z,27.31
2023-05-14T12:08:33.256Z,27.29
2023-05-14T12:11:23.138Z,27.30
2023-05-14T12:14:16.328Z,27.29
2023-05-14T12:17:09.965Z,27.27
2023-05-14T12:19:57.991Z,27.19
2023-05-14T12:22:46.299Z,26.97
2023-05-14T12:25:41.778Z,26.65
2023-05-14T12:28:36.948Z,26.43
2023-05-14T12:31:35.070Z,26.33
2023-05-14T12:34:23.100Z,26.31
2023-05-14T12:37:12.032Z,26.22
2023-05-14T12:40:00.566Z,26.02
2023-05-14T12:42:49.122Z,25.78
2023-05-14T12:45:37.333Z,25.54
2023-05-14T12:48:26.269Z,25.35
2023-05-14T12:51:15.781Z,25.30
2023-05-14T12:54:05.046Z,25.34
2023-05-14T12:56:53.068Z,25.41
2023-05-14T12:59:41.704Z,25.54
2023-05-14T13:02:30.771Z,25.70
2023-05-14T13:05:19.142Z,25.79
2023-05-14T13:08:08.325Z,25.74
2023-05-14T13:10:57.853Z,25.62
2023-05-14T13:13:46.104Z,25.41
2023-05-14T13:16:34.588Z,25.18
2023-05-14T13:19:24.850Z,24.99
2023-05-14T13:22:18.958Z,24.78
2023-05-14T13:25:08.802Z,24.59
2023-05-14T13:27:59.451Z,24.50
2023-05-14T13:31:08.003Z,24.62
2023-05-14T13:33:58.362Z,24.90
2023-05-14T13:36:47.340Z,25.13
2023-05-14T13:39:35.638Z,25.25
2023-05-14T13:42:24.108Z,25.20
2023-05-14T13:45:13.362Z,25.08
2023-05-14T13:48:01.639Z,24.96
2023-05-14T13:50:50.591Z,24.87
2023-05-14T13:53:38.868Z,24.80
2023-05-14T13:56:27.926Z,24.72
2023-05-14T13:59:16.760Z,24.69
2023-05-14T14:02:05.599Z,24.71
2023-05-14T14:04:53.796Z,24.77
2023-05-14T14:07:42.323Z,24.77
2023-05-14T14:10:31.083Z,24.79
2023-05-14T14:13:21.377Z,24.83
2023-05-14T14:16:12.714Z,24.88
2023-05-14T14:19:01.694Z,24.93
2023-05-14T14:24:38.981Z,24.90
2023-05-14T14:27:28.457Z,24.75
2023-05-14T14:30:16.132Z,24.60
2023-05-14T14:33:04.672Z,24.41
2023-05-14T14:35:53.990Z,24.25
2023-05-14T14:38:42.804Z,24.13
2023-05-14T14:41:31.130Z,24.02
2023-05-14T14:44:22.480Z,23.91
2023-05-14T14:47:10.723Z,23.73
2023-05-14T14:49:59.152Z,23.51
2023-05-14T14:52:48.256Z,23.30
2023-05-14T14:55:37.195Z,23.08
2023-05-14T14:58:25.550Z,22.89
2023-05-14T15:01:14.917Z,22.69
2023-05-14T15:04:04.003Z,22.47
2023-05-14T15:06:52.478Z,22.26
2023-05-14T15:09:42.511Z,22.07
2023-05-14T15:12:31.041Z,21.91
2023-05-14T15:15:19.638Z,21.76
2023-05-14T15:18:08.099Z,21.64
2023-05-14T15:20:57.179Z,21.54
2023-05-14T15:23:47.748Z,21.43
2023-05-14T15:26:35.994Z,21.36
2023-05-14T15:29:27.155Z,21.29
2023-05-14T15:32:15.792Z,21.21
2023-05-14T15:35:05.148Z,21.15
2023-05-14T15:37:59.748Z,21.13
2023-05-14T15:40:50.984Z,21.16
2023-05-14T15:43:42.698Z,21.23
2023-05-14T15:46:33.121Z,21.28
2023-05-14T15:49:21.707Z,21.31
2023-05-14T15:52:13.684Z,21.29
2023-05-14T15:55:01.599Z,21.26
2023-05-14T15:57:50.569Z,21.27
2023-05-14T16:00:41.212Z,21.32
2023-05-14T16:03:33.652Z,21.35
2023-05-14T16:06:25.573Z,21.39
2023-05-14T16:09:13.349Z,21.43
2023-05-14T16:12:03.121Z,21.44
2023-05-14T16:14:52.299Z,21.43
2023-05-14T16:17:42.678Z,21.40
2023-05-14T16:20:31.234Z,21.34
2023-05-14T16:23:21.279Z,21.27
2023-05-14T16:26:09.307Z,21.17
2023-05-14T16:28:58.472Z,21.08
2023-05-14T16:31:52.232Z,20.99
2023-05-14T16:34:42.086Z,20.88
2023-05-14T16:37:32.116Z,20.77
2023-05-14T16:40:22.355Z,20.67
2023-05-14T16:43:11.572Z,20.55
2023-05-14T16:46:02.366Z,20.44
2023-05-14T16:48:52.671Z,20.32
2023-05-14T16:51:44.362Z,20.22
2023-05-14T16:54:34.734Z,20.14
2023-05-14T16:57:25.718Z,20.06
2023-05-14T17:00:15.949Z,20.03
2023-05-14T17:03:04.901Z,19.98
2023-05-14T17:05:53.951Z,19.94
2023-05-14T17:08:42.062Z,19.89
2023-05-14T17:11:30.230Z,19.83
2023-05-14T17:14:18.658Z,19.77
2023-05-14T17:17:07.523Z,19.70
2023-05-14T17:19:56.766Z,19.65
2023-05-14T17:22:45.223Z,19.58
2023-05-14T17:25:33.768Z,19.52
2023-05-14T17:28:27.089Z,19.44
2023-05-14T17:31:18.755Z,19.36
2023-05-14T17:34:07.635Z,19.28
2023-05-14T17:36:56.223Z,19.22
2023-05-14T17:39:44.342Z,19.16
2023-05-14T17:42:32.590Z,19.10
2023-05-14T17:45:21.586Z,19.03
2023-05-14T17:48:12.503Z,18.98
2023-05-14T17:51:01.004Z,18.92
2023-05-14T17:53:49.666Z,18.86
2023-05-14T17:56:38.037Z,18.78
2023-05-14T17:59:26.620Z,18.68
2023-05-14T18:02:16.702Z,18.58
2023-05-14T18:05:05.604Z,18.49
2023-05-14T18:07:55.291Z,18.40
2023-05-14T18:10:44.119Z,18.30
2023-05-14T18:13:35.098Z,18.20
2023-05-14T18:16:24.131Z,18.11
2023-05-14T18:19:15.197Z,18.02
2023-05-14T18:22:03.656Z,17.94
2023-05-14T18:24:52.865Z,17.87
2023-05-14T18:27:44.633Z,17.80
2023-05-14T18:30:33.423Z,17.73
2023-05-14T18:33:24.138Z,17.66
2023-05-14T18:36:13.457Z,17.58
2023-05-14T18:39:05.795Z,17.52
2023-05-14T18:41:56.683Z,17.44
2023-05-14T18:44:44.868Z,17.37
2023-05-14T18:47:34.749Z,17.29
2023-05-14T18:50:27.132Z,17.21
2023-05-14T18:53:15.347Z,17.13
2023-05-14T18:56:05.200Z,17.02
2023-05-14T18:58:55.051Z,16.90
2023-05-14T19:01:43.581Z,16.79
2023-05-14T19:04:33.552Z,16.69
2023-05-14T19:07:27.950Z,16.60
2023-05-14T19:10:18.953Z,16.49
2023-05-14T19:13:07.087Z,16.38
2023-05-14T19:15:56.103Z,16.29
2023-05-14T19:18:44.113Z,16.22
2023-05-14T19:21:32.873Z,16.14
2023-05-14T19:24:20.680Z,16.08
2023-05-14T19:27:19.414Z,16.00
2023-05-14T19:30:09.425Z,15.94
2023-05-14T19:33:04.595Z,15.90
2023-05-14T19:35:56.281Z,15.85
2023-05-14T19:38:44.830Z,15.82
2023-05-14T19:41:34.979Z,15.77
2023-05-14T19:44:24.480Z,15.72
2023-05-14T19:47:14.137Z,15.68
2023-05-14T19:50:04.404Z,15.63
2023-05-14T19:52:52.688Z,15.57
2023-05-14T19:55:44.338Z,15.52
2023-05-14T19:58:34.847Z,15.47
2023-05-14T20:01:23.025Z,15.42
2023-05-14T20:04:11.561Z,15.36
2023-05-14T20:07:01.303Z,15.31
2023-05-14T20:09:49.561Z,15.26
2023-05-14T20:12:37.997Z,15.22
2023-05-14T20:15:26.857Z,15.18
2023-05-14T20:18:15.283Z,15.13
2023-05-14T20:21:05.712Z,15.07
2023-05-14T20:23:54.182Z,15.01
2023-05-14T20:26:44.104Z,14.98
2023-05-14T20:29:35.073Z,14.93
2023-05-14T20:32:25.167Z,14.88
2023-05-14T20:35:14.747Z,14.85
2023-05-14T20:38:04.563Z,14.82
2023-05-14T20:40:54.058Z,14.80
2023-05-14T20:43:44.582Z,14.79
2023-05-14T20:46:33.169Z,14.78
2023-05-14T20:49:21.389Z,14.77
2023-05-14T20:52:10.315Z,14.74
2023-05-14T20:55:00.755Z,14.71
2023-05-14T20:57:49.932Z,14.67
2023-05-14T21:00:39.317Z,14.62
2023-05-14T21:03:27.555Z,14.58
2023-05-14T21:06:16.420Z,14.52
2023-05-14T21:09:04.622Z,14.47
2023-05-14T21:11:54.143Z,14.41
2023-05-14T21:14:43.365Z,14.36
2023-05-14T21:17:34.652Z,14.31
2023-05-14T21:20:25.072Z,14.26
2023-05-14T21:23:14.816Z,14.22
2023-05-14T21:26:03.432Z,14.18
2023-05-14T21:28:53.459Z,14.14
2023-05-14T21:31:41.386Z,14.11
2023-05-14T21:34:31.234Z,14.07
2023-05-14T21:37:21.945Z,14.04
2023-05-14T21:40:12.585Z,14.01
2023-05-14T21:43:06.153Z,13.99
2023-05-14T21:45:54.508Z,13.96
2023-05-14T21:48:42.604Z,13.95
2023-05-14T21:51:32.354Z,13.93
2023-05-14T21:54:21.173Z,13.91
2023-05-14T21:57:09.519Z,13.89
2023-05-14T21:59:58.289Z,13.88
2023-05-14T22:02:47.235Z,13.86
2023-05-14T22:05:36.963Z,13.84
2023-05-14T22:08:24.948Z,13.84
2023-05-14T22:11:13.781Z,13.82
2023-05-14T22:14:04.407Z,13.81
2023-05-14T22:16:55.286Z,13.81
2023-05-14T22:19:43.781Z,13.80
2023-05-14T22:22:32.379Z,13.79
2023-05-14T22:25:20.351Z,13.77
2023-05-14T22:28:08.406Z,13.75
2023-05-14T22:30:59.873Z,13.73
2023-05-14T22:33:47.689Z,13.71
2023-05-14T22:36:35.794Z,13.70
2023-05-14T22:39:24.005Z,13.67
2023-05-14T22:42:12.242Z,13.65
2023-05-14T22:45:00.297Z,13.62
2023-05-14T22:47:49.207Z,13.59
2023-05-14T22:50:37.346Z,13.57
2023-05-14T22:53:25.676Z,13.53
2023-05-14T22:56:15.541Z,13.50
2023-05-14T22:59:04.307Z,13.47
2023-05-14T23:01:52.174Z,13.43
2023-05-14T23:04:40.625Z,13.68
2023-05-14T23:07:28.784Z,15.07
2023-05-14T23:10:17.992Z,16.23
2023-05-14T23:13:06.851Z,17.02
2023-05-14T23:15:55.881Z,17.24
2023-05-14T23:18:45.086Z,16.47
2023-05-14T23:21:33.390Z,15.80
2023-05-14T23:24:22.405Z,15.34
2023-05-14T23:27:11.818Z,15.01
2023-05-14T23:29:59.924Z,14.75
2023-05-14T23:32:49.810Z,14.52
2023-05-14T23:35:39.876Z,14.33
2023-05-14T23:38:27.647Z,14.17
2023-05-14T23:41:15.814Z,14.02
2023-05-14T23:44:04.032Z,13.89
2023-05-14T23:46:53.721Z,13.79
2023-05-14T23:49:41.969Z,13.68
2023-05-14T23:52:30.066Z,13.86
2023-05-14T23:55:19.232Z,15.14
2023-05-14T23:58:07.633Z,16.31
